Terminal Aerodrome Forecast
Issued by NWS

Home | Current Version | Previous Version | Text Only | Print | Product List | Glossary Off
Versions: 1 2 3 4 5 6 7 8 9 10 11 12 13 14 15 16 17 18 19 20 21 22 23 24 25 26 27 28 29 30

000
FTUS43 KGRB 280500
TAFRHI
TAF
KRHI 280530Z 2806/2906 00000KT P6SM SCT250
      TEMPO 2806/2809 1/2SM FG BKN002
     FM280900 00000KT 4SM BR FEW003 BKN250
      TEMPO 2809/2813 1/4SM FG BKN002
     FM281400 24006KT P6SM SCT050 SCT250
     FM282300 21003KT P6SM SKC=

USA.gov is the U.S. government's official web portal to all federal, state and local government web resources and services.